Time;durP1;ratioP1;P1;durP2;ratioP2;P2;SDS_P1;SDS_P2;PMS_P1;PMS_P2;Temp;Humidity;BMP_temperature;BMP_pressure;BME280_temperature;BME280_humidity;BME280_pressure;Samples;Min_cycle;Max_cycle;Signal;HPM_P1;HPM_P2
2022/06/19 00:00:37;;;;;;;1999.90;999.90;;;17.90;88.30;;;;;;5029964;28;20046;-82
2022/06/19 00:03:06;;;;;;;1999.90;999.90;;;17.90;87.70;;;;;;5026180;28;20233;-82
2022/06/19 00:05:32;;;;;;;1999.90;999.90;;;17.90;89.90;;;;;;5030805;28;20034;-82
2022/06/19 00:07:58;;;;;;;1999.90;999.90;;;17.80;90.30;;;;;;5033578;28;20059;-82
2022/06/19 00:10:24;;;;;;;1999.90;999.90;;;17.80;89.80;;;;;;5043345;28;20108;-82
2022/06/19 00:12:50;;;;;;;1999.90;999.90;;;17.80;89.00;;;;;;5038683;28;20029;-83
2022/06/19 00:15:16;;;;;;;1999.90;999.90;;;17.70;88.10;;;;;;5034906;28;20344;-82
2022/06/19 00:17:42;;;;;;;1999.90;999.90;;;17.70;91.10;;;;;;5035578;28;20017;-83
2022/06/19 00:20:09;;;;;;;1999.90;999.90;;;17.70;91.30;;;;;;5032074;28;20061;-82
2022/06/19 00:22:35;;;;;;;1999.90;999.90;;;17.60;90.00;;;;;;5035155;28;20041;-83
2022/06/19 00:25:00;;;;;;;1999.90;999.90;;;17.60;90.70;;;;;;5028762;28;20025;-82
2022/06/19 00:27:26;;;;;;;1999.90;999.90;;;17.70;91.00;;;;;;5030802;28;20028;-82
2022/06/19 00:29:52;;;;;;;1999.90;999.90;;;17.60;89.20;;;;;;5026513;28;20079;-82
2022/06/19 00:32:18;;;;;;;1999.90;999.90;;;17.60;90.10;;;;;;5026042;28;20053;-82
2022/06/19 00:34:44;;;;;;;1999.90;999.90;;;17.50;91.50;;;;;;5030172;28;20491;-82
2022/06/19 00:37:10;;;;;;;1999.90;999.90;;;17.50;91.80;;;;;;5017385;28;20041;-83
2022/06/19 00:39:39;;;;;;;1999.90;999.90;;;17.30;92.60;;;;;;5047280;28;20137;-82
2022/06/19 00:42:11;;;;;;;1999.90;999.90;;;17.10;95.20;;;;;;5042846;28;20086;-82
2022/06/19 00:44:37;;;;;;;1999.90;999.90;;;17.10;93.40;;;;;;5040264;28;20349;-83
2022/06/19 00:47:13;;;;;;;1999.90;999.90;;;17.10;93.90;;;;;;5035800;28;20033;-82
2022/06/19 00:49:48;;;;;;;1999.90;999.90;;;17.30;92.40;;;;;;5036498;28;20029;-82
2022/06/19 00:52:18;;;;;;;1999.90;999.90;;;17.40;91.70;;;;;;5036956;28;20020;-82
2022/06/19 00:54:59;;;;;;;1999.90;999.90;;;17.40;91.90;;;;;;5035230;28;20025;-82
2022/06/19 00:57:27;;;;;;;1999.90;999.90;;;17.30;93.90;;;;;;5047370;28;20033;-82
2022/06/19 01:00:23;;;;;;;1999.90;999.90;;;17.30;94.10;;;;;;5031327;28;20037;-83
2022/06/19 01:02:52;;;;;;;1999.90;999.90;;;17.30;94.10;;;;;;5029587;28;20038;-81
2022/06/19 01:05:18;;;;;;;1999.90;999.90;;;17.30;94.50;;;;;;5030881;28;20056;-81
2022/06/19 01:07:45;;;;;;;1999.90;999.90;;;17.20;95.30;;;;;;5033992;28;20059;-82
2022/06/19 01:10:13;;;;;;;1999.90;999.90;;;17.20;94.30;;;;;;5043961;28;20036;-82
2022/06/19 01:12:41;;;;;;;1999.90;999.90;;;17.10;95.00;;;;;;5042601;28;20054;-82
2022/06/19 01:15:10;;;;;;;1999.90;999.90;;;17.40;94.20;;;;;;5036532;28;20437;-81
2022/06/19 01:17:37;;;;;;;1999.90;999.90;;;17.10;94.50;;;;;;5038269;28;20044;-81
2022/06/19 01:20:07;;;;;;;1999.90;999.90;;;17.10;94.80;;;;;;5033983;28;20703;-82
2022/06/19 01:22:51;;;;;;;1999.90;999.90;;;17.00;95.70;;;;;;5033163;28;20156;-83
2022/06/19 01:25:22;;;;;;;1999.90;999.90;;;16.90;95.30;;;;;;5024773;28;20473;-82
2022/06/19 01:30:41;;;;;;;1999.90;999.90;;;16.70;96.00;;;;;;5031790;28;20032;-82
2022/06/19 01:33:10;;;;;;;1999.90;999.90;;;16.80;95.20;;;;;;5030315;28;20401;-82
2022/06/19 01:35:38;;;;;;;1999.90;999.90;;;16.80;94.30;;;;;;5024586;28;20087;-82
2022/06/19 01:38:13;;;;;;;1999.90;999.90;;;16.80;96.30;;;;;;5042100;28;20033;-82
2022/06/19 01:40:41;;;;;;;1999.90;999.90;;;16.60;97.50;;;;;;5041859;28;20025;-82
2022/06/19 01:43:08;;;;;;;1999.90;999.90;;;16.60;98.20;;;;;;5039568;28;20037;-83
2022/06/19 01:45:35;;;;;;;1999.90;999.90;;;16.50;99.50;;;;;;5034877;28;20025;-82
2022/06/19 01:48:01;;;;;;;1999.90;999.90;;;16.50;97.50;;;;;;5029232;28;20485;-82
2022/06/19 01:50:30;;;;;;;1999.90;999.90;;;16.60;97.20;;;;;;5036870;28;20045;-82
2022/06/19 01:53:21;;;;;;;1999.90;999.90;;;16.60;96.80;;;;;;5018636;28;20500;-82
2022/06/19 01:55:47;;;;;;;1999.90;999.90;;;16.60;96.60;;;;;;5033678;28;20067;-82
2022/06/19 01:58:13;;;;;;;1999.90;999.90;;;16.60;99.10;;;;;;5029397;28;20082;-82
2022/06/19 02:00:43;;;;;;;1999.90;999.90;;;16.50;98.50;;;;;;5032243;28;20128;-82
2022/06/19 02:03:32;;;;;;;1999.90;999.90;;;16.40;99.80;;;;;;5046997;28;20445;-82
2022/06/19 02:05:58;;;;;;;1999.90;999.90;;;16.50;99.00;;;;;;5027068;28;20033;-82
2022/06/19 02:08:26;;;;;;;1999.90;999.90;;;16.50;99.30;;;;;;5035075;28;20057;-82
2022/06/19 02:10:52;;;;;;;1999.90;999.90;;;16.40;99.90;;;;;;5041210;28;20029;-86
2022/06/19 02:13:20;;;;;;;1999.90;999.90;;;16.40;99.90;;;;;;5041855;28;20029;-83
2022/06/19 02:15:48;;;;;;;1999.90;999.90;;;16.30;99.90;;;;;;5038608;28;20480;-82
2022/06/19 02:18:21;;;;;;;1999.90;999.90;;;16.20;99.90;;;;;;5037693;28;20099;-82
2022/06/19 02:20:52;;;;;;;1999.90;999.90;;;16.20;99.90;;;;;;5030539;28;20441;-82
2022/06/19 02:23:35;;;;;;;1999.90;999.90;;;16.30;99.90;;;;;;5032413;28;20225;-82
2022/06/19 02:26:03;;;;;;;1999.90;999.90;;;16.30;99.90;;;;;;5029353;28;20022;-81
2022/06/19 02:28:29;;;;;;;1999.90;999.90;;;16.30;99.90;;;;;;5024584;28;20025;-83
2022/06/19 02:30:56;;;;;;;1999.90;999.90;;;16.20;99.90;;;;;;5028435;28;20302;-82
2022/06/19 02:33:26;;;;;;;1999.90;999.90;;;16.00;99.90;;;;;;5021727;28;20030;-82
2022/06/19 02:35:52;;;;;;;;;;;16.00;99.90;;;;;;5033010;28;20029;-82
2022/06/19 02:38:20;;;;;;;1999.90;999.90;;;16.00;99.90;;;;;;5042702;28;20433;-82
2022/06/19 02:40:54;;;;;;;1999.90;999.90;;;16.10;99.90;;;;;;5038648;28;20574;-82
2022/06/19 02:43:26;;;;;;;1999.90;999.90;;;16.10;99.90;;;;;;5036471;28;20025;-82
2022/06/19 02:45:52;;;;;;;1999.90;999.90;;;16.20;99.90;;;;;;5032674;28;20025;-82
2022/06/19 02:48:25;;;;;;;1999.90;999.90;;;16.20;99.90;;;;;;5047539;28;20040;-81
2022/06/19 02:50:51;;;;;;;1999.90;999.90;;;16.20;99.90;;;;;;5032579;28;20033;-82
2022/06/19 02:53:18;;;;;;;1999.90;999.90;;;16.20;99.90;;;;;;5030371;28;20036;-83
2022/06/19 02:55:44;;;;;;;1999.90;999.90;;;16.10;99.90;;;;;;5029201;28;20504;-82
2022/06/19 02:58:10;;;;;;;1999.90;999.90;;;16.10;99.90;;;;;;5030087;28;20045;-82
2022/06/19 03:00:36;;;;;;;1999.90;999.90;;;16.00;99.90;;;;;;5010029;28;20560;-82
2022/06/19 03:03:26;;;;;;;1999.90;999.90;;;16.00;99.90;;;;;;5026960;28;20278;-82
2022/06/19 03:05:52;;;;;;;1999.90;999.90;;;16.00;99.90;;;;;;5019220;28;20029;-82
2022/06/19 03:08:17;;;;;;;1999.90;999.90;;;16.00;99.90;;;;;;5033963;28;20040;-82
2022/06/19 03:10:43;;;;;;;1999.90;999.90;;;16.00;99.90;;;;;;5038718;28;20574;-82
2022/06/19 03:13:09;;;;;;;1999.90;999.90;;;16.00;99.90;;;;;;5035114;28;20489;-82
2022/06/19 03:15:35;;;;;;;1999.90;999.90;;;16.20;99.90;;;;;;5035932;28;20041;-82
2022/06/19 03:18:00;;;;;;;1999.90;999.90;;;16.30;99.90;;;;;;5033155;28;20108;-82
2022/06/19 03:20:26;;;;;;;1999.90;999.90;;;16.30;99.80;;;;;;5036289;28;20024;-82
2022/06/19 03:22:53;;;;;;;1999.90;999.90;;;16.30;99.50;;;;;;5032949;28;20716;-82
2022/06/19 03:25:19;;;;;;;1999.90;999.90;;;16.30;99.10;;;;;;5031138;28;20054;-82
2022/06/19 03:27:45;;;;;;;1999.90;999.90;;;16.30;98.80;;;;;;5030459;28;20542;-82
2022/06/19 03:30:13;;;;;;;1999.90;999.90;;;16.30;99.60;;;;;;5027770;28;20125;-83
2022/06/19 03:32:38;;;;;;;1999.90;999.90;;;16.30;99.50;;;;;;5044379;28;20034;-82
2022/06/19 03:35:04;;;;;;;1999.90;999.90;;;16.30;99.30;;;;;;5025039;28;20408;-82
2022/06/19 03:37:30;;;;;;;1999.90;999.90;;;16.30;99.50;;;;;;5035992;28;20465;-82
2022/06/19 03:39:56;;;;;;;1999.90;999.90;;;16.30;99.80;;;;;;5040749;28;20039;-82
2022/06/19 03:42:21;;;;;;;1999.90;999.90;;;16.30;99.90;;;;;;5037178;28;20048;-83
2022/06/19 03:44:47;;;;;;;1999.90;999.90;;;16.30;99.90;;;;;;5025827;28;20026;-82
2022/06/19 03:47:20;;;;;;;1999.90;999.90;;;16.30;99.90;;;;;;5025277;28;20395;-81
2022/06/19 03:49:46;;;;;;;1999.90;999.90;;;16.40;99.90;;;;;;5032142;28;20492;-82
2022/06/19 03:52:12;;;;;;;1999.90;999.90;;;16.30;99.90;;;;;;5029720;28;20045;-82
2022/06/19 03:54:37;;;;;;;1999.90;999.90;;;16.30;99.90;;;;;;5015013;28;20029;-82
2022/06/19 03:57:04;;;;;;;1999.90;999.90;;;16.40;99.90;;;;;;5029965;28;20044;-81
2022/06/19 03:59:30;;;;;;;1999.90;999.90;;;16.50;99.90;;;;;;5028266;28;20041;-82
2022/06/19 04:01:55;;;;;;;1999.90;999.90;;;16.60;99.90;;;;;;5025711;28;20087;-82
2022/06/19 04:04:21;;;;;;;1999.90;999.90;;;16.60;99.90;;;;;;5023071;28;20057;-81
2022/06/19 04:06:47;;;;;;;1999.90;999.90;;;16.70;99.90;;;;;;5040398;28;20025;-82
2022/06/19 04:09:15;;;;;;;1999.90;999.90;;;16.80;99.90;;;;;;5039649;28;20034;-82
2022/06/19 04:11:41;;;;;;;1999.90;999.90;;;16.80;99.10;;;;;;5046594;28;20032;-81
2022/06/19 04:14:08;;;;;;;1999.90;999.90;;;16.80;99.40;;;;;;5044229;28;20025;-82
2022/06/19 04:16:34;;;;;;;1999.90;999.90;;;16.90;99.00;;;;;;5037262;28;20568;-83
2022/06/19 04:19:02;;;;;;;1999.90;999.90;;;17.00;98.50;;;;;;5020504;28;20034;-83
2022/06/19 04:21:31;;;;;;;1999.90;999.90;;;17.00;98.70;;;;;;5039344;28;20485;-82
2022/06/19 04:23:59;;;;;;;1999.90;999.90;;;17.10;98.30;;;;;;5036923;28;20045;-82
2022/06/19 04:26:27;;;;;;;1999.90;999.90;;;17.10;98.90;;;;;;5035756;28;20025;-82
2022/06/19 04:28:53;;;;;;;1999.90;999.90;;;17.10;98.20;;;;;;5034270;28;20033;-83
2022/06/19 04:31:19;;;;;;;1999.90;999.90;;;17.20;98.10;;;;;;5031167;28;20029;-82
2022/06/19 04:33:45;;;;;;;1999.90;999.90;;;17.30;96.90;;;;;;5031210;28;20037;-82
2022/06/19 04:36:15;;;;;;;1999.90;999.90;;;17.50;95.30;;;;;;5040877;28;20037;-82
2022/06/19 04:38:42;;;;;;;1999.90;999.90;;;17.60;96.10;;;;;;5039288;28;20033;-82
2022/06/19 04:41:16;;;;;;;1999.90;999.90;;;17.70;95.40;;;;;;5043610;28;20040;-82
2022/06/19 04:43:42;;;;;;;1999.90;999.90;;;17.80;94.30;;;;;;5042102;28;20089;-82
2022/06/19 04:46:08;;;;;;;1999.90;999.90;;;17.90;95.30;;;;;;5040942;28;20065;-82
2022/06/19 04:48:35;;;;;;;1999.90;999.90;;;18.00;94.20;;;;;;5034338;28;20057;-82
2022/06/19 04:51:01;;;;;;;1999.90;999.90;;;18.10;93.40;;;;;;5038361;28;20033;-82
2022/06/19 04:53:27;;;;;;;1999.90;999.90;;;18.20;93.30;;;;;;5035883;28;20048;-82
2022/06/19 04:55:54;;;;;;;1999.90;999.90;;;18.30;93.00;;;;;;5033479;28;20041;-81
2022/06/19 04:58:23;;;;;;;1999.90;999.90;;;18.40;92.20;;;;;;5030625;28;20457;-82
2022/06/19 05:00:51;;;;;;;1999.90;999.90;;;18.60;92.80;;;;;;5008626;28;20046;-81
2022/06/19 05:03:19;;;;;;;1999.90;999.90;;;18.70;92.10;;;;;;5028729;28;20037;-82
2022/06/19 05:05:45;;;;;;;1999.90;999.90;;;18.80;91.50;;;;;;5042930;28;21127;-81
2022/06/19 05:08:11;;;;;;;1999.90;999.90;;;18.90;93.30;;;;;;5042450;28;20033;-82
2022/06/19 05:10:37;;;;;;;1999.90;999.90;;;19.00;90.90;;;;;;5042997;28;20059;-82
2022/06/19 05:13:05;;;;;;;1999.90;999.90;;;19.20;91.00;;;;;;5040094;28;20534;-82
2022/06/19 05:15:32;;;;;;;1999.90;999.90;;;19.30;90.40;;;;;;5038897;28;20029;-82
2022/06/19 05:17:58;;;;;;;1999.90;999.90;;;19.40;88.50;;;;;;5025617;28;20036;-82
2022/06/19 05:20:23;;;;;;;1999.90;999.90;;;19.60;87.10;;;;;;5018323;28;20052;-82
2022/06/19 05:22:49;;;;;;;1999.90;999.90;;;19.70;87.50;;;;;;5035777;28;20496;-83
2022/06/19 05:25:15;;;;;;;1999.90;999.90;;;19.80;86.20;;;;;;5037213;28;20210;-83
2022/06/19 05:27:41;;;;;;;1999.90;999.90;;;20.00;86.10;;;;;;5028902;28;20087;-82
2022/06/19 05:30:11;;;;;;;1999.90;999.90;;;20.10;88.60;;;;;;5035174;28;20037;-82
2022/06/19 05:32:36;;;;;;;1999.90;999.90;;;20.20;86.30;;;;;;5032115;28;20033;-83
2022/06/19 05:35:02;;;;;;;1999.90;999.90;;;20.40;85.60;;;;;;5023514;28;20144;-82
2022/06/19 05:37:28;;;;;;;1999.90;999.90;;;20.40;86.30;;;;;;5029549;28;20040;-82
2022/06/19 05:39:54;;;;;;;1999.90;999.90;;;20.60;88.10;;;;;;5044386;28;20071;-82
2022/06/19 05:42:20;;;;;;;1999.90;999.90;;;20.80;89.60;;;;;;5042694;28;20572;-82
2022/06/19 05:44:45;;;;;;;1999.90;999.90;;;20.90;85.60;;;;;;5040750;28;20094;-83
2022/06/19 05:47:11;;;;;;;1999.90;999.90;;;21.00;84.50;;;;;;5039298;28;20175;-82
2022/06/19 05:49:37;;;;;;;1999.90;999.90;;;21.10;84.20;;;;;;5037960;28;20489;-82
2022/06/19 05:52:15;;;;;;;1999.90;999.90;;;21.30;85.10;;;;;;5034941;28;20446;-82
2022/06/19 05:54:42;;;;;;;1999.90;999.90;;;21.50;84.10;;;;;;5033378;28;20028;-83
2022/06/19 05:57:07;;;;;;;1999.90;999.90;;;21.50;82.10;;;;;;5028925;28;20134;-82
2022/06/19 05:59:33;;;;;;;1999.90;999.90;;;21.60;85.10;;;;;;5033531;28;20136;-82
2022/06/19 06:01:59;;;;;;;1999.90;999.90;;;21.60;84.60;;;;;;5027672;28;20528;-82
2022/06/19 06:04:24;;;;;;;1999.90;999.90;;;21.60;80.70;;;;;;5015539;28;20500;-82
2022/06/19 06:06:50;;;;;;;1999.90;999.90;;;21.70;81.60;;;;;;5036009;28;20538;-83
2022/06/19 06:09:16;;;;;;;1999.90;999.90;;;21.90;81.30;;;;;;5021051;28;20030;-82
2022/06/19 06:11:41;;;;;;;1999.90;999.90;;;22.10;80.10;;;;;;5040421;28;20037;-81
2022/06/19 06:14:07;;;;;;;1999.90;999.90;;;22.30;78.80;;;;;;5044715;28;20029;-81
2022/06/19 06:16:33;;;;;;;1999.90;999.90;;;22.50;80.20;;;;;;5050154;28;20079;-81
2022/06/19 06:18:59;;;;;;;1999.90;999.90;;;22.60;82.40;;;;;;5045671;28;20479;-82
2022/06/19 06:21:25;;;;;;;1999.90;999.90;;;22.80;77.80;;;;;;5046503;28;20033;-82
2022/06/19 06:23:53;;;;;;;1999.90;999.90;;;22.90;78.60;;;;;;5052186;28;20023;-82
2022/06/19 06:26:25;;;;;;;1999.90;999.90;;;23.10;77.00;;;;;;5060784;28;20025;-81
2022/06/19 06:28:54;;;;;;;1999.90;999.90;;;23.10;75.40;;;;;;5056191;28;20029;-81
2022/06/19 06:31:20;;;;;;;1999.90;999.90;;;23.30;75.30;;;;;;5037452;28;20029;-82
2022/06/19 06:33:46;;;;;;;1999.90;999.90;;;23.30;75.30;;;;;;5026990;28;20112;-81
2022/06/19 06:36:13;;;;;;;1999.90;999.90;;;23.40;76.30;;;;;;5040028;28;20039;-83
2022/06/19 06:38:39;;;;;;;1999.90;999.90;;;23.60;73.80;;;;;;5066021;28;20017;-83
2022/06/19 06:41:07;;;;;;;1999.90;999.90;;;23.80;76.00;;;;;;5066033;28;20096;-86
2022/06/19 06:43:35;;;;;;;1999.90;999.90;;;23.90;72.30;;;;;;5063398;28;20035;-84
2022/06/19 06:46:10;;;;;;;1999.90;999.90;;;24.00;77.60;;;;;;5063088;28;20017;-81
2022/06/19 06:48:35;;;;;;;1999.90;999.90;;;24.10;72.50;;;;;;5060639;28;20021;-82
2022/06/19 06:51:23;;;;;;;1999.90;999.90;;;24.20;73.20;;;;;;5057780;28;20040;-85
2022/06/19 06:53:49;;;;;;;157.80;150.48;;;24.30;73.30;;;;;;5042563;28;20033;-81
2022/06/19 06:56:15;;;;;;;179.02;171.30;;;24.40;71.90;;;;;;5052247;28;20056;-83
2022/06/19 06:58:40;;;;;;;151.15;144.02;;;24.50;73.90;;;;;;5057816;28;20069;-89
2022/06/19 07:01:08;;;;;;;306.67;291.00;;;24.60;72.40;;;;;;5050578;28;20034;-91
2022/06/19 07:03:34;;;;;;;296.55;281.50;;;24.80;72.70;;;;;;5047936;28;20115;-89
2022/06/19 07:06:00;;;;;;;272.95;259.55;;;24.90;73.70;;;;;;5055517;28;20481;-92
2022/06/19 07:08:25;;;;;;;193.30;184.25;;;25.00;71.30;;;;;;5071980;28;20037;-91
2022/06/19 07:10:51;;;;;;;200.25;190.90;;;25.20;69.70;;;;;;5052676;28;20036;-92
2022/06/19 07:13:17;;;;;;;190.82;182.27;;;25.20;69.00;;;;;;5052427;28;20045;-85
2022/06/19 07:15:42;;;;;;;178.52;170.23;;;25.40;72.50;;;;;;5042705;28;20009;-85
2022/06/19 07:18:08;;;;;;;173.77;165.88;;;25.40;66.70;;;;;;5056233;28;20044;-83
2022/06/19 07:20:33;;;;;;;230.15;217.15;;;25.60;71.30;;;;;;5061760;28;20041;-83
2022/06/19 07:22:59;;;;;;;206.07;196.57;;;25.70;63.50;;;;;;5041604;28;20037;-83
2022/06/19 07:25:25;;;;;;;304.05;288.20;;;25.80;64.50;;;;;;5032865;28;20028;-85
2022/06/19 07:27:50;;;;;;;289.17;274.83;;;25.80;61.30;;;;;;5053689;28;20064;-83
2022/06/19 07:30:20;;;;;;;333.17;316.08;;;25.90;62.90;;;;;;5036520;28;20034;-83
2022/06/19 07:32:45;;;;;;;329.53;311.77;;;25.90;65.40;;;;;;5045778;28;20021;-80
2022/06/19 07:35:11;;;;;;;310.90;294.58;;;26.20;64.40;;;;;;5059155;28;20032;-91
2022/06/19 07:37:37;;;;;;;395.00;374.30;;;26.30;62.70;;;;;;5066066;28;20029;-81
2022/06/19 07:40:03;;;;;;;304.42;288.38;;;26.30;65.20;;;;;;5051123;28;20041;-81
2022/06/19 07:42:29;;;;;;;334.30;315.90;;;26.50;63.90;;;;;;5062672;28;20118;-83
2022/06/19 07:44:55;;;;;;;385.23;362.67;;;26.60;58.60;;;;;;5043975;28;20029;-84
2022/06/19 07:50:16;;;;;;;527.22;494.60;;;26.80;58.50;;;;;;5028987;28;20044;-83
2022/06/19 07:52:44;;;;;;;492.70;464.00;;;27.00;58.30;;;;;;5034880;28;20091;-84
2022/06/19 07:55:13;;;;;;;467.77;440.10;;;27.30;58.70;;;;;;5034364;28;20448;-84
2022/06/19 07:57:39;;;;;;;473.02;446.55;;;27.60;57.30;;;;;;5028474;28;20041;-76
2022/06/19 08:00:08;;;;;;;518.78;487.17;;;28.00;60.30;;;;;;5026180;28;20042;-77
2022/06/19 08:02:33;;;;;;;482.45;454.38;;;28.20;56.80;;;;;;5061323;28;20042;-79
2022/06/19 08:04:59;;;;;;;561.80;526.65;;;28.50;56.70;;;;;;5042554;28;20036;-77
2022/06/19 08:07:25;;;;;;;496.80;468.10;;;28.80;56.10;;;;;;5052368;28;20088;-81
2022/06/19 08:09:50;;;;;;;469.73;444.02;;;28.80;54.90;;;;;;5050419;28;20020;-80
2022/06/19 08:12:16;;;;;;;550.20;517.30;;;29.10;54.80;;;;;;5036897;28;20045;-81
2022/06/19 08:14:42;;;;;;;537.95;503.80;;;28.80;55.90;;;;;;5035537;28;20096;-82
2022/06/19 08:17:08;;;;;;;464.40;439.10;;;28.30;52.20;;;;;;5016839;28;20038;-83
2022/06/19 08:19:34;;;;;;;497.63;468.52;;;28.10;54.50;;;;;;5024929;28;20042;-81
2022/06/19 08:22:00;;;;;;;481.15;454.73;;;28.10;54.20;;;;;;5037762;28;20026;-82
2022/06/19 08:24:25;;;;;;;507.55;477.40;;;28.10;56.40;;;;;;5042258;28;20112;-80
2022/06/19 08:26:59;;;;;;;511.13;482.38;;;28.20;55.70;;;;;;5035800;28;20079;-78
2022/06/19 08:29:24;;;;;;;516.63;487.23;;;28.30;61.30;;;;;;5038505;28;20087;-80
2022/06/19 08:31:50;;;;;;;520.65;491.25;;;28.40;57.40;;;;;;5037041;28;20034;-79
2022/06/19 08:34:16;;;;;;;525.15;495.88;;;28.50;62.00;;;;;;5050201;28;20037;-80
2022/06/19 08:36:41;;;;;;;527.67;498.15;;;28.70;59.90;;;;;;5038459;28;20025;-80
2022/06/19 08:39:12;;;;;;;497.40;469.40;;;29.00;56.60;;;;;;5036869;28;20160;-81
2022/06/19 08:42:11;;;;;;;528.65;499.35;;;29.20;59.60;;;;;;5040176;28;20034;-81
2022/06/19 08:44:54;;;;;;;475.58;449.17;;;29.10;56.60;;;;;;5036487;28;20081;-81
2022/06/19 08:47:55;;;;;;;503.60;475.38;;;29.00;54.90;;;;;;5048843;28;20032;-81
2022/06/19 08:50:34;;;;;;;484.25;457.33;;;28.90;55.30;;;;;;5037566;28;20021;-81
2022/06/19 08:53:09;;;;;;;538.35;502.23;;;29.00;55.60;;;;;;5037025;28;20013;-82
2022/06/19 08:55:52;;;;;;;561.72;527.58;;;29.20;57.80;;;;;;5034000;28;20042;-81
2022/06/19 08:58:56;;;;;;;515.17;481.85;;;29.10;57.00;;;;;;5032227;28;20116;-82
2022/06/19 09:01:55;;;;;;;568.90;531.10;;;29.40;55.00;;;;;;5031481;28;20125;-80
2022/06/19 09:08:00;;;;;;;471.30;442.83;;;30.10;56.50;;;;;;5037497;28;20145;-80
2022/06/19 09:10:40;;;;;;;474.67;443.80;;;30.00;52.20;;;;;;5026855;28;20021;-81
2022/06/19 09:13:12;;;;;;;524.92;488.75;;;30.10;53.40;;;;;;5022542;28;20061;-81
2022/06/19 09:16:05;;;;;;;591.40;548.33;;;30.10;53.70;;;;;;5032502;28;20025;-81
2022/06/19 09:18:52;;;;;;;513.47;482.38;;;30.10;52.20;;;;;;5033855;28;20080;-87
2022/06/19 09:21:32;;;;;;;530.90;499.10;;;30.20;59.20;;;;;;5026657;28;20037;-80
2022/06/19 09:24:15;;;;;;;548.10;512.55;;;30.20;56.70;;;;;;5035759;28;20070;-87
2022/06/19 09:26:50;;;;;;;518.42;482.73;;;30.50;57.60;;;;;;5030082;28;20492;-86
2022/06/19 09:29:35;;;;;;;539.35;505.38;;;30.80;51.60;;;;;;5035690;28;20112;-94
2022/06/19 09:32:42;;;;;;;587.97;545.85;;;30.80;53.20;;;;;;5035149;28;20026;-95
2022/06/19 09:35:35;;;;;;;466.80;438.10;;;31.30;54.10;;;;;;5024531;28;20036;-93
2022/06/19 09:38:09;;;;;;;599.10;556.20;;;31.30;50.60;;;;;;5036949;28;20052;-92
2022/06/19 09:40:45;;;;;;;612.20;566.25;;;31.60;53.10;;;;;;5052896;28;20111;-93
2022/06/19 09:43:26;;;;;;;557.60;519.50;;;31.50;54.10;;;;;;5045727;28;20021;-96
2022/06/19 09:45:54;;;;;;;525.92;491.25;;;31.40;48.90;;;;;;5017241;28;20078;-89
2022/06/19 09:48:26;;;;;;;551.45;514.50;;;31.70;49.50;;;;;;5016633;28;20025;-88
2022/06/19 09:50:57;;;;;;;564.90;525.97;;;31.50;50.40;;;;;;5036526;28;20028;-89
2022/06/19 09:53:30;;;;;;;657.50;607.83;;;31.30;50.90;;;;;;5031335;28;20462;-93
2022/06/19 09:56:06;;;;;;;680.55;628.15;;;31.70;47.60;;;;;;5042025;28;20040;-96
2022/06/19 09:59:02;;;;;;;679.67;626.67;;;32.10;51.70;;;;;;5054222;28;20050;-96
2022/06/19 10:01:29;;;;;;;570.15;528.75;;;32.30;47.50;;;;;;5017770;28;20054;-95
2022/06/19 10:04:09;;;;;;;654.67;605.55;;;32.40;47.50;;;;;;5035177;28;20093;-96
2022/06/19 10:06:47;;;;;;;670.08;617.70;;;32.60;45.00;;;;;;5055895;28;20025;-93
2022/06/19 10:09:21;;;;;;;626.20;579.50;;;32.70;50.50;;;;;;5056203;28;20151;-95
2022/06/19 10:11:52;;;;;;;642.37;596.10;;;32.40;44.00;;;;;;5058733;23;20590;-94
2022/06/19 10:14:40;;;;;;;616.58;570.78;;;32.40;41.00;;;;;;5015586;28;20030;-93
2022/06/19 10:17:21;;;;;;;556.88;518.58;;;32.60;47.00;;;;;;5017351;28;20448;-91
2022/06/19 10:19:54;;;;;;;682.30;629.83;;;32.50;42.30;;;;;;5011782;28;20085;-91
2022/06/19 10:22:45;;;;;;;693.28;642.03;;;32.90;48.00;;;;;;5028309;28;20161;-91
2022/06/19 10:25:32;;;;;;;595.17;553.85;;;33.00;42.30;;;;;;5024941;28;20026;-92
2022/06/19 10:28:01;;;;;;;669.67;613.90;;;32.80;39.00;;;;;;5011142;28;20030;-86
2022/06/19 10:30:50;;;;;;;745.30;689.38;;;32.70;43.80;;;;;;5009684;28;20025;-90
2022/06/19 10:34:00;;;;;;;715.83;660.85;;;32.90;41.70;;;;;;5005903;28;20021;-90
2022/06/19 10:36:31;;;;;;;762.47;706.15;;;32.80;38.90;;;;;;5021039;28;20045;-93
2022/06/19 10:39:05;;;;;;;784.00;723.53;;;33.20;41.20;;;;;;5029820;28;20116;-91
2022/06/19 10:42:05;;;;;;;806.67;741.33;;;33.60;42.20;;;;;;5026145;28;20025;-91
2022/06/19 10:44:52;;;;;;;790.17;729.85;;;33.30;38.70;;;;;;5024916;28;20030;-89
2022/06/19 10:47:29;;;;;;;854.72;786.38;;;33.70;39.30;;;;;;5019096;28;20077;-90
2022/06/19 10:50:10;;;;;;;720.30;669.40;;;33.30;39.70;;;;;;5017406;28;20029;-90
2022/06/19 10:52:58;;;;;;;796.80;728.90;;;33.20;39.20;;;;;;5028080;28;20041;-90
2022/06/19 10:55:40;;;;;;;796.05;731.25;;;33.20;39.60;;;;;;5027416;28;20061;-91
2022/06/19 10:58:21;;;;;;;799.15;735.85;;;33.20;38.70;;;;;;5011858;28;20049;-90
2022/06/19 11:00:53;;;;;;;795.78;730.13;;;34.20;42.10;;;;;;5032137;28;20460;-93
2022/06/19 11:06:54;;;;;;;722.97;666.95;;;34.30;37.50;;;;;;5012839;28;20037;-91
2022/06/19 11:09:20;;;;;;;758.17;702.17;;;34.80;36.80;;;;;;5034102;28;20029;-92
2022/06/19 11:11:48;;;;;;;864.10;793.47;;;35.30;36.60;;;;;;5013009;28;20026;-91
2022/06/19 11:14:34;;;;;;;838.28;769.90;;;35.00;35.00;;;;;;5026830;28;20061;-92
2022/06/19 11:17:00;;;;;;;844.80;775.67;;;36.00;35.90;;;;;;5036245;28;20489;-90
2022/06/19 11:19:40;;;;;;;940.70;850.75;;;36.70;39.60;;;;;;5026457;28;20069;-92
2022/06/19 11:22:28;;;;;;;910.08;835.60;;;36.00;32.10;;;;;;5014656;28;20458;-93
2022/06/19 11:24:55;;;;;;;859.15;790.17;;;35.90;35.80;;;;;;5003587;28;20034;-93
2022/06/19 11:27:24;;;;;;;913.60;835.33;;;36.30;39.50;;;;;;5014435;28;20060;-92
2022/06/19 11:29:53;;;;;;;905.67;831.63;;;36.80;35.80;;;;;;4995674;28;20033;-91
2022/06/19 11:32:21;;;;;;;918.90;841.15;;;36.30;36.00;;;;;;5006617;28;20121;-92
2022/06/19 11:35:08;;;;;;;844.72;777.38;;;36.80;36.10;;;;;;5012682;28;20410;-94
2022/06/19 11:37:48;;;;;;;914.95;837.53;;;37.20;32.40;;;;;;5012040;28;20104;-94
2022/06/19 11:40:26;;;;;;;910.47;832.28;;;37.60;32.10;;;;;;5035154;28;20022;-94
2022/06/19 11:42:54;;;;;;;879.95;807.17;;;37.40;32.40;;;;;;5048464;28;20032;-94
2022/06/19 11:45:25;;;;;;;929.58;850.72;;;37.50;33.70;;;;;;4995994;28;20026;-94
2022/06/19 11:47:56;;;;;;;852.92;782.95;;;38.00;32.40;;;;;;5018289;28;20022;-94
2022/06/19 11:50:32;;;;;;;943.28;860.03;;;37.90;31.80;;;;;;5027753;28;20038;-94
2022/06/19 11:53:11;;;;;;;952.28;869.42;;;38.00;30.50;;;;;;5004145;28;20026;-93
2022/06/19 11:55:41;;;;;;;969.72;880.30;;;37.60;31.70;;;;;;5009945;28;20052;-95
2022/06/19 11:58:30;;;;;;;917.67;838.22;;;37.90;30.10;;;;;;5025071;28;20430;-94
2022/06/19 12:01:17;;;;;;;899.08;822.65;;;37.70;32.10;;;;;;5020587;28;20041;-95
2022/06/19 12:03:56;;;;;;;904.22;827.22;;;38.50;30.10;;;;;;5012035;28;20507;-95
2022/06/19 12:06:48;;;;;;;935.47;854.50;;;38.70;30.80;;;;;;5028479;28;20030;-93
2022/06/19 12:09:37;;;;;;;921.70;844.35;;;39.00;27.90;;;;;;5028453;28;20045;-94
2022/06/19 12:12:11;;;;;;;;;;;39.20;28.70;;;;;;5041428;28;20087;-94
2022/06/19 12:14:46;;;;;;;933.55;854.72;;;38.60;27.90;;;;;;5049556;28;20280;-94
2022/06/19 12:17:36;;;;;;;899.65;824.30;;;37.90;28.70;;;;;;5031875;28;20060;-94
2022/06/19 12:20:07;;;;;;;913.45;835.85;;;38.40;28.40;;;;;;5054105;28;20017;-94
2022/06/19 12:23:05;;;;;;;959.83;875.70;;;38.70;28.50;;;;;;5043537;28;20054;-93
2022/06/19 12:25:51;;;;;;;939.30;859.40;;;38.40;27.90;;;;;;5053637;28;20038;-93
2022/06/19 12:28:46;;;;;;;956.20;873.00;;;39.10;24.70;;;;;;5046757;28;20021;-90
2022/06/19 12:31:24;;;;;;;960.78;877.28;;;38.90;26.60;;;;;;5049104;28;20018;-95
2022/06/19 12:34:02;;;;;;;943.58;862.72;;;39.50;24.80;;;;;;5058641;28;20026;-95
2022/06/19 12:36:35;;;;;;;1087.65;971.92;;;40.40;25.40;;;;;;5042697;28;20025;-93